sensor_id;sensor_type;location;lat;lon;timestamp;pressure;altitude;pressure_sealevel;temperature;humidity
64080;BME280;51042;49.696;10.808;2023-04-08T00:00:39;98648.63;;;3.12;100.00
64080;BME280;51042;49.696;10.808;2023-04-08T00:03:05;98659.84;;;3.11;100.00
64080;BME280;51042;49.696;10.808;2023-04-08T00:05:30;98657.13;;;3.07;100.00
64080;BME280;51042;49.696;10.808;2023-04-08T00:07:55;98659.03;;;3.03;100.00
64080;BME280;51042;49.696;10.808;2023-04-08T00:10:21;98653.19;;;3.01;100.00
64080;BME280;51042;49.696;10.808;2023-04-08T00:12:46;98660.13;;;2.95;100.00
64080;BME280;51042;49.696;10.808;2023-04-08T00:15:12;98664.34;;;2.89;100.00
64080;BME280;51042;49.696;10.808;2023-04-08T00:17:37;98666.63;;;2.83;100.00
64080;BME280;51042;49.696;10.808;2023-04-08T00:20:03;98657.72;;;2.79;100.00
64080;BME280;51042;49.696;10.808;2023-04-08T00:22:29;98661.16;;;2.76;100.00
64080;BME280;51042;49.696;10.808;2023-04-08T00:24:56;98653.41;;;2.75;100.00
64080;BME280;51042;49.696;10.808;2023-04-08T00:27:22;98665.78;;;2.72;100.00
64080;BME280;51042;49.696;10.808;2023-04-08T00:29:49;98664.22;;;2.68;100.00
64080;BME280;51042;49.696;10.808;2023-04-08T00:32:14;98663.75;;;2.62;100.00
64080;BME280;51042;49.696;10.808;2023-04-08T00:34:40;98666.09;;;2.60;100.00
64080;BME280;51042;49.696;10.808;2023-04-08T00:37:05;98663.31;;;2.57;100.00
64080;BME280;51042;49.696;10.808;2023-04-08T00:39:30;98670.69;;;2.56;100.00
64080;BME280;51042;49.696;10.808;2023-04-08T00:41:55;98662.97;;;2.58;100.00
64080;BME280;51042;49.696;10.808;2023-04-08T00:44:21;98669.94;;;2.59;100.00
64080;BME280;51042;49.696;10.808;2023-04-08T00:46:46;98668.81;;;2.64;100.00
64080;BME280;51042;49.696;10.808;2023-04-08T00:49:12;98674.66;;;2.69;100.00
64080;BME280;51042;49.696;10.808;2023-04-08T00:51:38;98667.31;;;2.70;100.00
64080;BME280;51042;49.696;10.808;2023-04-08T00:54:03;98678.50;;;2.68;100.00
64080;BME280;51042;49.696;10.808;2023-04-08T00:56:29;98675.06;;;2.71;100.00
64080;BME280;51042;49.696;10.808;2023-04-08T00:58:56;98677.78;;;2.75;100.00
64080;BME280;51042;49.696;10.808;2023-04-08T01:01:31;98676.69;;;2.79;100.00
64080;BME280;51042;49.696;10.808;2023-04-08T01:06:38;98679.41;;;2.83;100.00
64080;BME280;51042;49.696;10.808;2023-04-08T01:09:11;98677.13;;;2.88;100.00
64080;BME280;51042;49.696;10.808;2023-04-08T01:11:37;98677.91;;;2.93;100.00
64080;BME280;51042;49.696;10.808;2023-04-08T01:14:07;98676.41;;;2.95;100.00
64080;BME280;51042;49.696;10.808;2023-04-08T01:16:35;98680.66;;;2.96;100.00
64080;BME280;51042;49.696;10.808;2023-04-08T01:19:05;98669.47;;;2.98;100.00
64080;BME280;51042;49.696;10.808;2023-04-08T01:21:32;98682.22;;;2.97;100.00
64080;BME280;51042;49.696;10.808;2023-04-08T01:24:12;98680.31;;;2.98;100.00
64080;BME280;51042;49.696;10.808;2023-04-08T01:26:50;98671.41;;;3.01;100.00
64080;BME280;51042;49.696;10.808;2023-04-08T01:29:15;98677.59;;;3.05;100.00
64080;BME280;51042;49.696;10.808;2023-04-08T01:31:41;98676.09;;;3.11;100.00
64080;BME280;51042;49.696;10.808;2023-04-08T01:34:07;98674.16;;;3.11;100.00
64080;BME280;51042;49.696;10.808;2023-04-08T01:36:36;98675.34;;;3.14;100.00
64080;BME280;51042;49.696;10.808;2023-04-08T01:39:02;98672.59;;;3.10;100.00
64080;BME280;51042;49.696;10.808;2023-04-08T01:41:30;98678.06;;;3.14;100.00
64080;BME280;51042;49.696;10.808;2023-04-08T01:43:59;98673.06;;;3.23;100.00
64080;BME280;51042;49.696;10.808;2023-04-08T01:46:26;98675.03;;;3.29;100.00
64080;BME280;51042;49.696;10.808;2023-04-08T01:48:52;98676.63;;;3.34;100.00
64080;BME280;51042;49.696;10.808;2023-04-08T01:51:19;98672.00;;;3.38;100.00
64080;BME280;51042;49.696;10.808;2023-04-08T01:53:46;98673.16;;;3.41;100.00
64080;BME280;51042;49.696;10.808;2023-04-08T01:56:11;98664.66;;;3.42;100.00
64080;BME280;51042;49.696;10.808;2023-04-08T01:58:44;98672.78;;;3.46;100.00
64080;BME280;51042;49.696;10.808;2023-04-08T02:01:13;98676.31;;;3.50;100.00
64080;BME280;51042;49.696;10.808;2023-04-08T02:03:42;98680.97;;;3.53;100.00
64080;BME280;51042;49.696;10.808;2023-04-08T02:06:09;98690.28;;;3.55;100.00
64080;BME280;51042;49.696;10.808;2023-04-08T02:08:35;98680.22;;;3.56;100.00
64080;BME280;51042;49.696;10.808;2023-04-08T02:11:00;98686.44;;;3.60;100.00
64080;BME280;51042;49.696;10.808;2023-04-08T02:13:27;98685.69;;;3.63;100.00
64080;BME280;51042;49.696;10.808;2023-04-08T02:15:56;98682.56;;;3.64;100.00
64080;BME280;51042;49.696;10.808;2023-04-08T02:18:29;98682.59;;;3.68;100.00
64080;BME280;51042;49.696;10.808;2023-04-08T02:21:19;98682.97;;;3.66;100.00
64080;BME280;51042;49.696;10.808;2023-04-08T02:23:47;98690.72;;;3.61;100.00
64080;BME280;51042;49.696;10.808;2023-04-08T02:26:15;98687.22;;;3.57;100.00
64080;BME280;51042;49.696;10.808;2023-04-08T02:28:42;98691.44;;;3.54;100.00
64080;BME280;51042;49.696;10.808;2023-04-08T02:31:09;98687.16;;;3.50;100.00
64080;BME280;51042;49.696;10.808;2023-04-08T02:33:37;98688.69;;;3.47;100.00
64080;BME280;51042;49.696;10.808;2023-04-08T02:36:03;98692.97;;;3.45;100.00
64080;BME280;51042;49.696;10.808;2023-04-08T02:38:30;98695.28;;;3.43;100.00
64080;BME280;51042;49.696;10.808;2023-04-08T02:40:57;98694.50;;;3.42;100.00
64080;BME280;51042;49.696;10.808;2023-04-08T02:43:22;98701.44;;;3.40;100.00
64080;BME280;51042;49.696;10.808;2023-04-08T02:45:55;98696.78;;;3.37;100.00
64080;BME280;51042;49.696;10.808;2023-04-08T02:48:21;98696.78;;;3.37;100.00
64080;BME280;51042;49.696;10.808;2023-04-08T02:50:46;98700.66;;;3.32;100.00
64080;BME280;51042;49.696;10.808;2023-04-08T02:53:11;98697.91;;;3.28;100.00
64080;BME280;51042;49.696;10.808;2023-04-08T02:55:37;98696.38;;;3.27;100.00
64080;BME280;51042;49.696;10.808;2023-04-08T02:58:03;98699.06;;;3.27;100.00
64080;BME280;51042;49.696;10.808;2023-04-08T03:00:28;98698.66;;;3.25;100.00
64080;BME280;51042;49.696;10.808;2023-04-08T03:02:54;98699.81;;;3.24;100.00
64080;BME280;51042;49.696;10.808;2023-04-08T03:05:19;98707.94;;;3.24;100.00
64080;BME280;51042;49.696;10.808;2023-04-08T03:07:45;98699.44;;;3.26;100.00
64080;BME280;51042;49.696;10.808;2023-04-08T03:10:11;98704.09;;;3.25;100.00
64080;BME280;51042;49.696;10.808;2023-04-08T03:12:36;98709.47;;;3.22;100.00
64080;BME280;51042;49.696;10.808;2023-04-08T03:15:01;98707.16;;;3.20;100.00
64080;BME280;51042;49.696;10.808;2023-04-08T03:17:28;98709.47;;;3.18;100.00
64080;BME280;51042;49.696;10.808;2023-04-08T03:19:53;98712.53;;;3.13;100.00
64080;BME280;51042;49.696;10.808;2023-04-08T03:22:18;98709.81;;;3.10;100.00
64080;BME280;51042;49.696;10.808;2023-04-08T03:24:44;98712.88;;;3.08;100.00
64080;BME280;51042;49.696;10.808;2023-04-08T03:27:10;98709.34;;;3.04;100.00
64080;BME280;51042;49.696;10.808;2023-04-08T03:29:36;98707.78;;;3.00;100.00
64080;BME280;51042;49.696;10.808;2023-04-08T03:32:02;98717.84;;;2.96;100.00
64080;BME280;51042;49.696;10.808;2023-04-08T03:34:27;98710.84;;;2.95;100.00
64080;BME280;51042;49.696;10.808;2023-04-08T03:36:52;98720.13;;;2.94;100.00
64080;BME280;51042;49.696;10.808;2023-04-08T03:39:17;98725.56;;;2.94;100.00
64080;BME280;51042;49.696;10.808;2023-04-08T03:41:43;98723.22;;;2.92;100.00
64080;BME280;51042;49.696;10.808;2023-04-08T03:44:09;98725.91;;;2.92;100.00
64080;BME280;51042;49.696;10.808;2023-04-08T03:46:34;98716.63;;;2.90;100.00
64080;BME280;51042;49.696;10.808;2023-04-08T03:48:59;98723.56;;;2.87;100.00
64080;BME280;51042;49.696;10.808;2023-04-08T03:51:25;98723.56;;;2.83;100.00
64080;BME280;51042;49.696;10.808;2023-04-08T03:53:51;98718.13;;;2.80;100.00
64080;BME280;51042;49.696;10.808;2023-04-08T03:56:16;98720.41;;;2.78;100.00
64080;BME280;51042;49.696;10.808;2023-04-08T03:58:41;98715.28;;;2.69;100.00
64080;BME280;51042;49.696;10.808;2023-04-08T04:01:07;98730.78;;;2.69;100.00
64080;BME280;51042;49.696;10.808;2023-04-08T04:03:32;98724.56;;;2.68;100.00
64080;BME280;51042;49.696;10.808;2023-04-08T04:05:57;98726.91;;;2.66;100.00
64080;BME280;51042;49.696;10.808;2023-04-08T04:08:23;98723.34;;;2.62;100.00
64080;BME280;51042;49.696;10.808;2023-04-08T04:10:48;98734.97;;;2.63;100.00
64080;BME280;51042;49.696;10.808;2023-04-08T04:13:13;98729.56;;;2.63;100.00
64080;BME280;51042;49.696;10.808;2023-04-08T04:15:41;98728.78;;;2.62;100.00
64080;BME280;51042;49.696;10.808;2023-04-08T04:18:06;98732.25;;;2.63;100.00
64080;BME280;51042;49.696;10.808;2023-04-08T04:20:32;98729.19;;;2.64;100.00
64080;BME280;51042;49.696;10.808;2023-04-08T04:22:57;98738.13;;;2.68;100.00
64080;BME280;51042;49.696;10.808;2023-04-08T04:25:23;98738.97;;;2.76;100.00
64080;BME280;51042;49.696;10.808;2023-04-08T04:27:48;98738.25;;;2.82;100.00
64080;BME280;51042;49.696;10.808;2023-04-08T04:30:13;98736.75;;;2.92;100.00
64080;BME280;51042;49.696;10.808;2023-04-08T04:32:40;98739.16;;;3.01;100.00
64080;BME280;51042;49.696;10.808;2023-04-08T04:35:06;98739.63;;;3.10;100.00
64080;BME280;51042;49.696;10.808;2023-04-08T04:37:33;98731.53;;;3.17;100.00
64080;BME280;51042;49.696;10.808;2023-04-08T04:39:58;98735.00;;;3.14;100.00
64080;BME280;51042;49.696;10.808;2023-04-08T04:42:24;98744.31;;;3.16;100.00
64080;BME280;51042;49.696;10.808;2023-04-08T04:44:50;98746.69;;;3.21;100.00
64080;BME280;51042;49.696;10.808;2023-04-08T04:47:15;98744.41;;;3.31;100.00
64080;BME280;51042;49.696;10.808;2023-04-08T04:49:40;98746.75;;;3.32;100.00
64080;BME280;51042;49.696;10.808;2023-04-08T04:52:06;98746.81;;;3.39;100.00
64080;BME280;51042;49.696;10.808;2023-04-08T04:54:31;98748.78;;;3.49;100.00
64080;BME280;51042;49.696;10.808;2023-04-08T04:56:56;98748.06;;;3.56;100.00
64080;BME280;51042;49.696;10.808;2023-04-08T04:59:22;98751.94;;;3.58;100.00
64080;BME280;51042;49.696;10.808;2023-04-08T05:01:47;98753.16;;;3.68;100.00
64080;BME280;51042;49.696;10.808;2023-04-08T05:04:12;98752.78;;;3.73;100.00
64080;BME280;51042;49.696;10.808;2023-04-08T05:06:38;98762.91;;;3.80;100.00
64080;BME280;51042;49.696;10.808;2023-04-08T05:09:03;98758.66;;;3.86;100.00
64080;BME280;51042;49.696;10.808;2023-04-08T05:11:28;98760.63;;;3.92;100.00
64080;BME280;51042;49.696;10.808;2023-04-08T05:13:53;98757.94;;;3.96;100.00
64080;BME280;51042;49.696;10.808;2023-04-08T05:16:19;98762.59;;;3.99;100.00
64080;BME280;51042;49.696;10.808;2023-04-08T05:18:44;98774.25;;;4.03;100.00
64080;BME280;51042;49.696;10.808;2023-04-08T05:21:10;98768.81;;;4.06;98.29
64080;BME280;51042;49.696;10.808;2023-04-08T05:23:35;98773.50;;;4.09;93.96
64080;BME280;51042;49.696;10.808;2023-04-08T05:26:00;98776.25;;;4.17;91.06
64080;BME280;51042;49.696;10.808;2023-04-08T05:28:26;98773.53;;;4.24;88.27
64080;BME280;51042;49.696;10.808;2023-04-08T05:30:51;98778.22;;;4.30;86.47
64080;BME280;51042;49.696;10.808;2023-04-08T05:33:17;98781.75;;;4.38;82.47
64080;BME280;51042;49.696;10.808;2023-04-08T05:35:43;98786.03;;;4.46;83.88
64080;BME280;51042;49.696;10.808;2023-04-08T05:38:09;98789.53;;;4.50;81.87
64080;BME280;51042;49.696;10.808;2023-04-08T05:40:34;98786.81;;;4.53;82.03
64080;BME280;51042;49.696;10.808;2023-04-08T05:43:00;98787.22;;;4.52;81.41
64080;BME280;51042;49.696;10.808;2023-04-08T05:45:26;98791.09;;;4.55;82.80
64080;BME280;51042;49.696;10.808;2023-04-08T05:47:52;98796.91;;;4.53;83.00
64080;BME280;51042;49.696;10.808;2023-04-08T05:50:17;98790.72;;;4.53;82.82
64080;BME280;51042;49.696;10.808;2023-04-08T05:52:43;98784.50;;;4.56;83.23
64080;BME280;51042;49.696;10.808;2023-04-08T05:55:09;98798.50;;;4.58;83.34
64080;BME280;51042;49.696;10.808;2023-04-08T05:57:36;98811.66;;;4.56;83.20
64080;BME280;51042;49.696;10.808;2023-04-08T06:00:02;98805.06;;;4.60;82.67
64080;BME280;51042;49.696;10.808;2023-04-08T06:02:31;98805.47;;;4.62;82.75
64080;BME280;51042;49.696;10.808;2023-04-08T06:04:56;98813.66;;;4.69;83.09
64080;BME280;51042;49.696;10.808;2023-04-08T06:07:21;98808.59;;;4.71;82.83
64080;BME280;51042;49.696;10.808;2023-04-08T06:09:46;98814.06;;;4.75;83.15
64080;BME280;51042;49.696;10.808;2023-04-08T06:12:12;98821.03;;;4.79;82.11
64080;BME280;51042;49.696;10.808;2023-04-08T06:14:37;98817.16;;;4.80;85.38
64080;BME280;51042;49.696;10.808;2023-04-08T06:17:03;98816.78;;;4.82;84.76
64080;BME280;51042;49.696;10.808;2023-04-08T06:19:28;98824.16;;;4.81;87.68
64080;BME280;51042;49.696;10.808;2023-04-08T06:21:53;98828.00;;;4.77;88.14
64080;BME280;51042;49.696;10.808;2023-04-08T06:24:23;98828.78;;;4.77;91.53
64080;BME280;51042;49.696;10.808;2023-04-08T06:26:50;98828.03;;;4.80;92.94
64080;BME280;51042;49.696;10.808;2023-04-08T06:29:17;98826.09;;;4.81;94.94
64080;BME280;51042;49.696;10.808;2023-04-08T06:31:42;98824.16;;;4.81;93.15
64080;BME280;51042;49.696;10.808;2023-04-08T06:34:07;98828.81;;;4.84;95.21
64080;BME280;51042;49.696;10.808;2023-04-08T06:36:32;98829.63;;;4.92;95.71
64080;BME280;51042;49.696;10.808;2023-04-08T06:38:58;98833.09;;;4.85;94.54
64080;BME280;51042;49.696;10.808;2023-04-08T06:41:23;98827.28;;;4.90;96.77
64080;BME280;51042;49.696;10.808;2023-04-08T06:43:48;98838.94;;;4.98;96.34
64080;BME280;51042;49.696;10.808;2023-04-08T06:46:14;98831.94;;;5.08;95.62
64080;BME280;51042;49.696;10.808;2023-04-08T06:48:40;98837.03;;;5.06;94.98
64080;BME280;51042;49.696;10.808;2023-04-08T06:51:05;98847.47;;;4.97;97.97
64080;BME280;51042;49.696;10.808;2023-04-08T06:53:31;98855.63;;;4.86;99.24
64080;BME280;51042;49.696;10.808;2023-04-08T06:55:57;98855.25;;;4.87;100.00
64080;BME280;51042;49.696;10.808;2023-04-08T06:58:22;98865.34;;;4.90;100.00
64080;BME280;51042;49.696;10.808;2023-04-08T07:00:48;98858.75;;;4.88;100.00
64080;BME280;51042;49.696;10.808;2023-04-08T07:03:13;98863.00;;;4.82;100.00
64080;BME280;51042;49.696;10.808;2023-04-08T07:05:38;98866.09;;;4.84;100.00
64080;BME280;51042;49.696;10.808;2023-04-08T07:08:06;98862.22;;;4.85;100.00
64080;BME280;51042;49.696;10.808;2023-04-08T07:10:31;98860.69;;;4.87;100.00
64080;BME280;51042;49.696;10.808;2023-04-08T07:12:56;98870.41;;;4.96;100.00
64080;BME280;51042;49.696;10.808;2023-04-08T07:15:22;98871.16;;;4.89;100.00
64080;BME280;51042;49.696;10.808;2023-04-08T07:17:47;98868.84;;;5.02;100.00
64080;BME280;51042;49.696;10.808;2023-04-08T07:20:12;98872.75;;;4.93;100.00
64080;BME280;51042;49.696;10.808;2023-04-08T07:22:38;98874.69;;;5.07;100.00
64080;BME280;51042;49.696;10.808;2023-04-08T07:25:04;98865.38;;;5.26;100.00
64080;BME280;51042;49.696;10.808;2023-04-08T07:27:30;98873.56;;;5.37;100.00
64080;BME280;51042;49.696;10.808;2023-04-08T07:29:55;98878.22;;;5.32;100.00
64080;BME280;51042;49.696;10.808;2023-04-08T07:32:22;98880.56;;;5.41;100.00
64080;BME280;51042;49.696;10.808;2023-04-08T07:34:47;98881.72;;;5.29;100.00
64080;BME280;51042;49.696;10.808;2023-04-08T07:37:13;98887.16;;;5.29;100.00
64080;BME280;51042;49.696;10.808;2023-04-08T07:39:38;98886.00;;;5.34;100.00
64080;BME280;51042;49.696;10.808;2023-04-08T07:42:03;98894.94;;;5.34;100.00
64080;BME280;51042;49.696;10.808;2023-04-08T07:44:29;98885.59;;;5.32;100.00
64080;BME280;51042;49.696;10.808;2023-04-08T07:46:54;98895.31;;;5.22;100.00
64080;BME280;51042;49.696;10.808;2023-04-08T07:49:19;98894.13;;;5.20;100.00
64080;BME280;51042;49.696;10.808;2023-04-08T07:51:45;98894.53;;;5.11;100.00
64080;BME280;51042;49.696;10.808;2023-04-08T07:54:10;98894.13;;;5.13;100.00
64080;BME280;51042;49.696;10.808;2023-04-08T07:56:36;98891.81;;;5.18;100.00
64080;BME280;51042;49.696;10.808;2023-04-08T07:59:04;98892.22;;;5.34;100.00
64080;BME280;51042;49.696;10.808;2023-04-08T08:01:30;98901.56;;;5.48;100.00
64080;BME280;51042;49.696;10.808;2023-04-08T08:03:58;98906.22;;;5.51;100.00
64080;BME280;51042;49.696;10.808;2023-04-08T08:06:24;98899.22;;;5.60;100.00
64080;BME280;51042;49.696;10.808;2023-04-08T08:08:50;98912.06;;;5.56;100.00
64080;BME280;51042;49.696;10.808;2023-04-08T08:11:15;98912.44;;;5.62;100.00
64080;BME280;51042;49.696;10.808;2023-04-08T08:13:40;98909.72;;;5.69;100.00
64080;BME280;51042;49.696;10.808;2023-04-08T08:16:06;98912.03;;;5.85;100.00
64080;BME280;51042;49.696;10.808;2023-04-08T08:18:32;98915.56;;;6.06;100.00
64080;BME280;51042;49.696;10.808;2023-04-08T08:21:00;98916.69;;;6.16;100.00
64080;BME280;51042;49.696;10.808;2023-04-08T08:23:25;98913.16;;;6.33;100.00
64080;BME280;51042;49.696;10.808;2023-04-08T08:25:57;98920.13;;;6.38;98.00
64080;BME280;51042;49.696;10.808;2023-04-08T08:28:36;98914.63;;;6.55;97.57
64080;BME280;51042;49.696;10.808;2023-04-08T08:31:02;98923.13;;;6.79;95.64
64080;BME280;51042;49.696;10.808;2023-04-08T08:33:27;98925.84;;;6.79;95.37
64080;BME280;51042;49.696;10.808;2023-04-08T08:35:53;98918.75;;;6.92;94.12
64080;BME280;51042;49.696;10.808;2023-04-08T08:38:19;98926.13;;;6.98;94.33
64080;BME280;51042;49.696;10.808;2023-04-08T08:40:44;98930.00;;;7.05;93.87
64080;BME280;51042;49.696;10.808;2023-04-08T08:43:10;98916.72;;;7.14;93.61
64080;BME280;51042;49.696;10.808;2023-04-08T08:45:39;98931.84;;;7.22;93.67
64080;BME280;51042;49.696;10.808;2023-04-08T08:48:06;98929.19;;;7.11;90.81
64080;BME280;51042;49.696;10.808;2023-04-08T08:50:32;98925.00;;;6.96;92.98
64080;BME280;51042;49.696;10.808;2023-04-08T08:52:58;98937.50;;;6.90;94.72
64080;BME280;51042;49.696;10.808;2023-04-08T08:55:23;98934.84;;;6.69;95.19
64080;BME280;51042;49.696;10.808;2023-04-08T08:57:49;98938.00;;;6.56;97.55
64080;BME280;51042;49.696;10.808;2023-04-08T09:00:15;98944.63;;;6.55;96.34
64080;BME280;51042;49.696;10.808;2023-04-08T09:02:40;98944.66;;;6.45;97.53
64080;BME280;51042;49.696;10.808;2023-04-08T09:05:06;98936.13;;;6.36;100.00
64080;BME280;51042;49.696;10.808;2023-04-08T09:07:34;98938.09;;;6.28;100.00
64080;BME280;51042;49.696;10.808;2023-04-08T09:10:00;98944.31;;;6.36;100.00
64080;BME280;51042;49.696;10.808;2023-04-08T09:12:26;98945.47;;;6.28;100.00
64080;BME280;51042;49.696;10.808;2023-04-08T09:15:05;98954.03;;;6.33;100.00
64080;BME280;51042;49.696;10.808;2023-04-08T09:17:38;98948.59;;;6.33;100.00
64080;BME280;51042;49.696;10.808;2023-04-08T09:20:10;98952.06;;;6.48;100.00
64080;BME280;51042;49.696;10.808;2023-04-08T09:25:27;98955.44;;;6.84;100.00
64080;BME280;51042;49.696;10.808;2023-04-08T09:27:56;98954.13;;;7.10;100.00
64080;BME280;51042;49.696;10.808;2023-04-08T09:30:22;98958.00;;;7.19;100.00
64080;BME280;51042;49.696;10.808;2023-04-08T09:32:49;98956.78;;;7.27;98.33
64080;BME280;51042;49.696;10.808;2023-04-08T09:35:16;98948.56;;;7.31;100.00
64080;BME280;51042;49.696;10.808;2023-04-08T09:37:42;98955.16;;;7.37;100.00
64080;BME280;51042;49.696;10.808;2023-04-08T09:40:08;98955.84;;;7.52;97.69
64080;BME280;51042;49.696;10.808;2023-04-08T09:42:35;98953.91;;;7.49;96.13
64080;BME280;51042;49.696;10.808;2023-04-08T09:45:09;98956.59;;;7.56;97.84
64080;BME280;51042;49.696;10.808;2023-04-08T09:47:38;98963.63;;;7.53;96.27
64080;BME280;51042;49.696;10.808;2023-04-08T09:50:11;98955.84;;;7.55;97.41
64080;BME280;51042;49.696;10.808;2023-04-08T09:52:43;98963.22;;;7.58;96.50
64080;BME280;51042;49.696;10.808;2023-04-08T09:55:11;98969.84;;;7.61;94.60
64080;BME280;51042;49.696;10.808;2023-04-08T10:00:36;98959.34;;;7.52;93.00
64080;BME280;51042;49.696;10.808;2023-04-08T10:03:09;98963.50;;;7.74;93.56
64080;BME280;51042;49.696;10.808;2023-04-08T10:05:44;98962.09;;;8.00;90.14
64080;BME280;51042;49.696;10.808;2023-04-08T10:08:11;98960.66;;;8.30;88.81
64080;BME280;51042;49.696;10.808;2023-04-08T10:10:37;98961.66;;;8.50;87.07
64080;BME280;51042;49.696;10.808;2023-04-08T10:13:04;98969.53;;;8.78;86.17
64080;BME280;51042;49.696;10.808;2023-04-08T10:15:31;98960.06;;;8.86;85.58
64080;BME280;51042;49.696;10.808;2023-04-08T10:23:09;98956.19;;;9.68;79.73
64080;BME280;51042;49.696;10.808;2023-04-08T10:25:37;98952.66;;;9.44;80.71
64080;BME280;51042;49.696;10.808;2023-04-08T10:30:44;98961.13;;;9.26;83.01
64080;BME280;51042;49.696;10.808;2023-04-08T10:33:14;98955.75;;;9.46;82.42
64080;BME280;51042;49.696;10.808;2023-04-08T10:35:46;98953.22;;;9.59;82.72
64080;BME280;51042;49.696;10.808;2023-04-08T10:38:19;98958.66;;;9.86;79.64
64080;BME280;51042;49.696;10.808;2023-04-08T10:40:46;98954.72;;;9.63;78.23
64080;BME280;51042;49.696;10.808;2023-04-08T10:43:12;98947.09;;;9.74;80.54
64080;BME280;51042;49.696;10.808;2023-04-08T10:45:39;98953.47;;;9.68;78.11
64080;BME280;51042;49.696;10.808;2023-04-08T10:48:15;98946.03;;;9.68;79.64
64080;BME280;51042;49.696;10.808;2023-04-08T10:50:44;98942.78;;;9.50;78.45
64080;BME280;51042;49.696;10.808;2023-04-08T10:53:17;98944.19;;;9.35;79.65
64080;BME280;51042;49.696;10.808;2023-04-08T10:55:42;98955.94;;;9.32;81.63
64080;BME280;51042;49.696;10.808;2023-04-08T10:58:08;98947.84;;;9.52;81.66
64080;BME280;51042;49.696;10.808;2023-04-08T11:00:35;98943.78;;;9.60;81.11
64080;BME280;51042;49.696;10.808;2023-04-08T11:03:06;98946.78;;;9.42;81.29
64080;BME280;51042;49.696;10.808;2023-04-08T11:05:32;98944.63;;;9.30;81.13
64080;BME280;51042;49.696;10.808;2023-04-08T11:07:59;98948.66;;;9.22;83.01
64080;BME280;51042;49.696;10.808;2023-04-08T11:10:25;98942.94;;;9.39;83.51
64080;BME280;51042;49.696;10.808;2023-04-08T11:12:52;98945.66;;;9.66;82.69
64080;BME280;51042;49.696;10.808;2023-04-08T11:15:19;98939.53;;;9.59;81.90
64080;BME280;51042;49.696;10.808;2023-04-08T11:17:46;98938.88;;;9.98;80.32
64080;BME280;51042;49.696;10.808;2023-04-08T11:20:12;98932.03;;;10.09;78.97
64080;BME280;51042;49.696;10.808;2023-04-08T11:22:38;98939.91;;;10.50;79.44
64080;BME280;51042;49.696;10.808;2023-04-08T11:25:04;98941.41;;;10.35;75.28
64080;BME280;51042;49.696;10.808;2023-04-08T11:27:32;98932.72;;;10.17;77.79
64080;BME280;51042;49.696;10.808;2023-04-08T11:29:58;98943.06;;;10.06;77.31
64080;BME280;51042;49.696;10.808;2023-04-08T11:32:24;98947.28;;;10.10;78.07
64080;BME280;51042;49.696;10.808;2023-04-08T11:34:49;98940.88;;;10.20;76.87
64080;BME280;51042;49.696;10.808;2023-04-08T11:37:15;98937.94;;;10.51;76.91
64080;BME280;51042;49.696;10.808;2023-04-08T11:39:43;98935.13;;;10.94;74.08
64080;BME280;51042;49.696;10.808;2023-04-08T11:42:25;98942.19;;;11.31;73.48
64080;BME280;51042;49.696;10.808;2023-04-08T11:44:51;98936.19;;;11.36;72.02
64080;BME280;51042;49.696;10.808;2023-04-08T11:47:16;98930.34;;;11.50;70.82
64080;BME280;51042;49.696;10.808;2023-04-08T11:49:44;98932.53;;;11.75;70.12
64080;BME280;51042;49.696;10.808;2023-04-08T11:52:10;98926.63;;;11.76;70.06
64080;BME280;51042;49.696;10.808;2023-04-08T11:54:39;98925.69;;;11.83;70.04
64080;BME280;51042;49.696;10.808;2023-04-08T11:57:06;98922.63;;;11.45;70.62
64080;BME280;51042;49.696;10.808;2023-04-08T11:59:34;98927.75;;;11.27;69.04
64080;BME280;51042;49.696;10.808;2023-04-08T12:01:59;98922.88;;;11.51;69.58
64080;BME280;51042;49.696;10.808;2023-04-08T12:04:25;98925.78;;;11.79;69.56
64080;BME280;51042;49.696;10.808;2023-04-08T12:06:51;98934.50;;;12.23;67.69
64080;BME280;51042;49.696;10.808;2023-04-08T12:09:17;98931.06;;;12.19;66.43
64080;BME280;51042;49.696;10.808;2023-04-08T12:11:42;98931.09;;;11.86;66.44
64080;BME280;51042;49.696;10.808;2023-04-08T12:14:08;98932.28;;;12.02;68.24
64080;BME280;51042;49.696;10.808;2023-04-08T12:16:33;98932.09;;;11.60;66.20
64080;BME280;51042;49.696;10.808;2023-04-08T12:18:59;98925.19;;;11.36;68.86
64080;BME280;51042;49.696;10.808;2023-04-08T12:21:24;98926.63;;;11.24;69.13
64080;BME280;51042;49.696;10.808;2023-04-08T12:23:49;98931.09;;;11.18;68.89
64080;BME280;51042;49.696;10.808;2023-04-08T12:26:15;98929.44;;;11.21;68.94
64080;BME280;51042;49.696;10.808;2023-04-08T12:28:41;98928.41;;;11.15;70.80
64080;BME280;51042;49.696;10.808;2023-04-08T12:31:06;98930.06;;;10.73;71.59
64080;BME280;51042;49.696;10.808;2023-04-08T12:33:31;98927.59;;;10.39;72.17
64080;BME280;51042;49.696;10.808;2023-04-08T12:35:57;98935.78;;;9.96;73.63
64080;BME280;51042;49.696;10.808;2023-04-08T12:38:23;98929.69;;;9.61;74.16
64080;BME280;51042;49.696;10.808;2023-04-08T12:40:49;98929.38;;;9.56;75.25
64080;BME280;51042;49.696;10.808;2023-04-08T12:43:14;98928.66;;;9.52;75.13
64080;BME280;51042;49.696;10.808;2023-04-08T12:45:40;98935.53;;;9.36;76.04
64080;BME280;51042;49.696;10.808;2023-04-08T12:48:06;98938.59;;;9.15;76.76
64080;BME280;51042;49.696;10.808;2023-04-08T12:50:31;98936.63;;;9.16;78.08
64080;BME280;51042;49.696;10.808;2023-04-08T12:52:56;98940.78;;;9.24;78.50
64080;BME280;51042;49.696;10.808;2023-04-08T12:55:22;98948.38;;;9.13;78.32
64080;BME280;51042;49.696;10.808;2023-04-08T12:57:49;98943.03;;;9.06;78.22
64080;BME280;51042;49.696;10.808;2023-04-08T13:00:15;98944.22;;;9.05;78.35
64080;BME280;51042;49.696;10.808;2023-04-08T13:02:41;98941.56;;;8.97;78.29
64080;BME280;51042;49.696;10.808;2023-04-08T13:05:08;98942.25;;;9.05;77.28